Aktjubinsk, Kazakhstan
Current Conditions -  °F | °C
As of 11:00 PM on Friday 19 Dec 2014 (Local Time) from UATT Reporting Station
Clear Clear  
Wind Chill:   Ceiling: Unl
Heat Index: 19°   Visibility: 6mi
Dew Point: 12°   Wind: 11mph
Humidity: 74%   Direction: 160°SSE
Pressure: 30.18"   Gusts: NA
Location:  50.28°N, 57.15°E
Report Text: UATT 191800Z 16005MPS CAVOK M07/M11 Q1022 R13/0///60 NOSIG RMKQFE746/0995
Loading
Personal Weather Stations






























Interactive Weather Map New forecast layout! Learn more

10-Day Weather Forecast

Advertisements
Track Severe Weather on mobile